Terminal Aerodrome Forecast
Issued by NWS Bismarck, ND

Home | Current Version | Previous Version | Graphics & Text | Print | Product List | Glossary On
Versions: 1 2 3 4 5 6 7 8 9 10 11 12 13 14 15 16 17 18 19 20 21 22 23 24
000
FTUS43 KBIS 250700 AAA
TAFISN
TAF AMD
KISN 250711Z 2507/2606 34005KT P6SM SKC
     FM250900 28008KT P6SM SKC
     FM251500 26015G25KT P6SM SKC
     FM260200 26008KT P6SM SKC=

USA.gov is the U.S. government's official web portal to all federal, state and local government web resources and services.